Time;durP1;ratioP1;P1;durP2;ratioP2;P2;SDS_P1;SDS_P2;PMS_P1;PMS_P2;Temp;Humidity;BMP_temperature;BMP_pressure;BME280_temperature;BME280_humidity;BME280_pressure;Samples;Min_cycle;Max_cycle;Signal;HPM_P1;HPM_P2
2021/12/23 00:01:38;;;;;;;4.88;3.22;;;;;;;-3.94;69.91;95543.81;5032212;28;20235;-71
2021/12/23 00:04:06;;;;;;;6.78;3.33;;;;;;;-3.95;70.23;95542.19;5032425;28;20204;-71
2021/12/23 00:06:33;;;;;;;2.35;1.13;;;;;;;-3.95;69.87;95542.19;5019033;28;20239;-71
2021/12/23 00:09:03;;;;;;;4.38;2.05;;;;;;;-3.92;69.71;95541.75;5032251;28;20208;-72
2021/12/23 00:11:31;;;;;;;3.72;1.50;;;;;;;-3.92;69.27;95536.47;5031940;28;20235;-72
2021/12/23 00:14:02;;;;;;;12.05;2.38;;;;;;;-3.91;69.82;95546.03;5032427;28;20649;-71
2021/12/23 00:16:43;;;;;;;5.25;3.30;;;;;;;-3.90;69.35;95550.31;5031451;28;20747;-72
2021/12/23 00:19:24;;;;;;;1.33;1.25;;;;;;;-4.02;69.85;95541.44;5031183;28;20286;-72
2021/12/23 00:24:37;;;;;;;5.15;2.78;;;;;;;-4.15;70.05;95541.53;5031115;28;20319;-72
2021/12/23 00:27:05;;;;;;;8.10;3.30;;;;;;;-4.21;70.43;95552.94;5031207;28;20204;-72
2021/12/23 00:29:32;;;;;;;9.13;4.65;;;;;;;-4.18;70.73;95552.53;5031322;28;20219;-72
2021/12/23 00:31:59;;;;;;;7.50;3.92;;;;;;;-4.22;70.30;95556.63;5030845;28;20196;-71
2021/12/23 00:34:27;;;;;;;3.22;2.40;;;;;;;-4.27;70.47;95551.97;5031965;28;20208;-73
2021/12/23 00:36:57;;;;;;;9.73;4.55;;;;;;;-4.31;70.96;95551.59;5030446;28;20286;-72
2021/12/23 00:39:25;;;;;;;19.73;5.55;;;;;;;-4.31;70.75;95559.53;5020671;28;20228;-72
2021/12/23 00:41:55;;;;;;;8.27;4.25;;;;;;;-4.32;70.83;95552.59;5031456;28;20240;-72
2021/12/23 00:44:22;;;;;;;4.68;1.98;;;;;;;-4.35;70.94;95560.16;5031550;28;20196;-72
2021/12/23 00:46:49;;;;;;;10.15;4.18;;;;;;;-4.42;71.83;95557.56;5017929;28;20726;-72
2021/12/23 00:49:16;;;;;;;9.13;4.95;;;;;;;-4.48;71.76;95568.97;5031913;28;20220;-72
2021/12/23 00:51:43;;;;;;;9.10;4.35;;;;;;;-4.58;72.11;95552.75;5018009;28;20651;-72
2021/12/23 00:54:10;;;;;;;7.22;3.88;;;;;;;-4.61;73.70;95555.81;5031902;28;20235;-72
2021/12/23 00:56:38;;;;;;;8.32;4.35;;;;;;;-4.72;73.83;95556.47;5027639;28;20205;-72
2021/12/23 00:59:08;;;;;;;5.82;3.00;;;;;;;-4.78;73.51;95555.47;5022187;28;20196;-72
2021/12/23 01:01:35;;;;;;;10.43;4.57;;;;;;;-4.81;73.55;95549.81;5030731;28;20282;-72
2021/12/23 01:04:02;;;;;;;7.28;4.65;;;;;;;-4.83;73.48;95538.63;5019097;28;20216;-72
2021/12/23 01:06:29;;;;;;;6.55;3.40;;;;;;;-4.81;73.48;95541.88;5029092;28;20664;-72
2021/12/23 01:08:56;;;;;;;6.22;3.45;;;;;;;-4.86;73.03;95539.84;5030948;28;20200;-72
2021/12/23 01:11:24;;;;;;;22.25;12.70;;;;;;;-4.99;73.61;95539.91;5031364;28;20211;-72
2021/12/23 01:14:02;;;;;;;25.33;12.30;;;;;;;-5.04;75.12;95543.16;5019675;28;20205;-72
2021/12/23 01:16:48;;;;;;;22.52;11.35;;;;;;;-5.09;73.32;95537.72;5017643;28;20351;-72
2021/12/23 01:19:16;;;;;;;7.25;3.63;;;;;;;-5.12;73.20;95539.94;5014535;28;20233;-72
2021/12/23 01:21:43;;;;;;;8.13;4.25;;;;;;;-5.05;74.37;95536.25;5011053;28;20213;-72
2021/12/23 01:24:10;;;;;;;14.65;5.25;;;;;;;-5.06;74.25;95545.19;5010450;28;20200;-71
2021/12/23 01:26:38;;;;;;;2.95;2.00;;;;;;;-5.01;73.56;95540.13;5030264;28;20235;-72
2021/12/23 01:29:05;;;;;;;4.43;3.10;;;;;;;-5.07;73.78;95527.75;5029973;28;20682;-71
2021/12/23 01:31:38;;;;;;;12.23;4.68;;;;;;;-5.21;73.94;95536.72;5029809;28;20695;-71
2021/12/23 01:34:06;;;;;;;15.82;5.47;;;;;;;-5.35;75.17;95537.78;5029154;28;20258;-71
2021/12/23 01:36:33;;;;;;;13.40;4.07;;;;;;;-5.38;75.13;95519.72;5030307;28;20204;-71
2021/12/23 01:39:00;;;;;;;8.50;4.70;;;;;;;-5.34;74.90;95539.41;5031098;28;20207;-71
2021/12/23 01:41:28;;;;;;;21.27;11.73;;;;;;;-5.23;75.69;95528.19;5030612;28;20240;-72
2021/12/23 01:43:55;;;;;;;24.60;12.43;;;;;;;-5.18;74.88;95528.38;5029938;28;20718;-72
2021/12/23 01:46:23;;;;;;;22.77;11.93;;;;;;;-5.16;73.94;95518.41;5017443;28;20221;-72
2021/12/23 01:48:52;;;;;;;25.85;12.68;;;;;;;-5.17;75.18;95521.25;5016846;28;20204;-72
2021/12/23 01:51:19;;;;;;;27.02;13.75;;;;;;;-5.26;74.97;95518.06;5030783;28;20667;-72
2021/12/23 01:53:46;;;;;;;12.13;6.43;;;;;;;-5.20;75.75;95517.22;5030596;28;20200;-72
2021/12/23 01:56:13;;;;;;;6.43;3.17;;;;;;;-5.28;74.85;95512.16;5030014;28;20200;-72
2021/12/23 01:58:42;;;;;;;9.50;4.75;;;;;;;-5.40;75.96;95527.00;5029738;28;20208;-72
2021/12/23 02:01:10;;;;;;;16.80;6.43;;;;;;;-5.44;76.09;95525.81;5030675;28;20232;-72
2021/12/23 02:03:37;;;;;;;14.63;5.57;;;;;;;-5.40;75.40;95522.56;5030743;28;20211;-72
2021/12/23 02:06:06;;;;;;;14.05;5.57;;;;;;;-5.51;75.04;95535.56;5030178;28;20211;-72
2021/12/23 02:08:33;;;;;;;13.73;5.07;;;;;;;-5.69;76.11;95528.28;5030440;28;20211;-72
2021/12/23 02:11:01;;;;;;;9.45;3.33;;;;;;;-5.64;75.43;95535.59;5030742;28;20228;-72
2021/12/23 02:13:29;;;;;;;13.60;5.85;;;;;;;-5.68;75.95;95534.38;5030316;28;20192;-72
2021/12/23 02:15:56;;;;;;;11.02;4.43;;;;;;;-5.63;75.73;95531.94;5030523;28;20212;-72
2021/12/23 02:18:23;;;;;;;13.18;5.72;;;;;;;-5.87;76.94;95549.19;5030580;28;20228;-72
2021/12/23 02:20:53;;;;;;;18.13;7.40;;;;;;;-5.96;78.29;95559.16;5027435;28;20584;-72
2021/12/23 02:23:20;;;;;;;11.63;5.40;;;;;;;-5.75;78.91;95556.31;5030401;28;20200;-71
2021/12/23 02:25:47;;;;;;;17.98;10.35;;;;;;;-5.52;77.32;95540.03;5029870;28;20326;-72
2021/12/23 02:28:16;;;;;;;21.02;11.23;;;;;;;-5.46;76.74;95544.47;5030423;28;20204;-71
2021/12/23 02:30:43;;;;;;;19.55;10.13;;;;;;;-5.40;76.58;95542.84;5030096;28;20610;-71
2021/12/23 02:33:10;;;;;;;16.70;10.05;;;;;;;-5.32;77.56;95545.25;5030229;28;20211;-71
2021/12/23 02:35:38;;;;;;;17.52;9.55;;;;;;;-5.33;76.66;95538.38;5029738;28;20204;-71
2021/12/23 02:38:07;;;;;;;20.48;10.93;;;;;;;-5.14;76.75;95532.22;5031048;28;20215;-71
2021/12/23 02:40:37;;;;;;;7.95;4.40;;;;;;;-5.52;76.70;95533.94;5033282;28;20319;-72
2021/12/23 02:43:14;;;;;;;10.13;4.95;;;;;;;-5.55;77.44;95545.72;5033841;28;20686;-72
2021/12/23 02:45:41;;;;;;;10.30;4.45;;;;;;;-5.93;77.80;95553.47;5001581;28;20224;-72
2021/12/23 02:48:13;;;;;;;95.10;33.55;;;;;;;-6.22;77.98;95551.22;5027801;28;20259;-72
2021/12/23 02:50:40;;;;;;;14.48;5.47;;;;;;;-6.34;78.56;95542.28;5033843;28;20215;-72
2021/12/23 02:53:08;;;;;;;12.98;6.15;;;;;;;-6.34;79.47;95555.47;5033633;28;20733;-71
2021/12/23 02:55:36;;;;;;;11.63;6.28;;;;;;;-6.22;78.71;95548.59;5033775;28;20211;-71
2021/12/23 02:58:03;;;;;;;12.90;6.45;;;;;;;-6.25;79.73;95538.44;5033638;28;20207;-72
2021/12/23 03:00:30;;;;;;;11.10;4.43;;;;;;;-6.00;79.65;95542.09;5033065;28;20247;-71
2021/12/23 03:02:57;;;;;;;13.63;5.97;;;;;;;-6.00;79.65;95533.38;5033474;28;20212;-73
2021/12/23 03:05:27;;;;;;;9.77;5.22;;;;;;;-6.21;78.60;95523.84;5038894;28;20211;-73
2021/12/23 03:07:53;;;;;;;13.40;5.20;;;;;;;-6.29;78.68;95531.97;5038949;28;20205;-72
2021/12/23 03:10:22;;;;;;;10.85;4.88;;;;;;;-6.31;80.04;95533.97;5038009;28;20231;-71
2021/12/23 03:12:49;;;;;;;13.98;4.75;;;;;;;-6.40;78.92;95524.63;5033872;28;20215;-71
2021/12/23 03:15:16;;;;;;;9.10;3.60;;;;;;;-6.33;78.49;95526.28;5033400;28;20591;-73
2021/12/23 03:17:43;;;;;;;4.85;3.28;;;;;;;-6.30;78.33;95515.34;5029393;28;20635;-72
2021/12/23 03:20:11;;;;;;;14.80;5.95;;;;;;;-6.38;78.78;95519.97;5013690;28;20228;-72
2021/12/23 03:22:38;;;;;;;27.20;14.07;;;;;;;-6.42;79.00;95524.03;5026907;28;20216;-72
2021/12/23 03:25:06;;;;;;;27.45;13.70;;;;;;;-6.55;78.87;95517.69;5024811;28;20204;-71
2021/12/23 03:27:34;;;;;;;25.50;13.15;;;;;;;-6.48;78.49;95518.53;5028621;28;20209;-72
2021/12/23 03:30:01;;;;;;;22.10;10.00;;;;;;;-6.43;78.62;95509.25;5024772;28;20238;-71
2021/12/23 03:32:28;;;;;;;29.60;13.75;;;;;;;-6.35;79.41;95516.94;5032905;28;20201;-72
2021/12/23 03:34:55;;;;;;;29.88;13.38;;;;;;;-6.33;80.04;95520.19;5033512;28;20208;-73
2021/12/23 03:37:22;;;;;;;27.38;14.45;;;;;;;-6.13;79.32;95521.81;5032800;28;20219;-72
2021/12/23 03:39:51;;;;;;;27.67;15.15;;;;;;;-6.11;80.79;95524.25;5032644;28;20201;-73
2021/12/23 03:42:18;;;;;;;37.72;18.77;;;;;;;-6.02;78.79;95517.78;5018880;28;20287;-71
2021/12/23 03:44:46;;;;;;;16.98;7.50;;;;;;;-5.94;79.18;95525.47;5033064;28;20708;-72
2021/12/23 03:47:13;;;;;;;10.07;6.00;;;;;;;-5.81;78.48;95525.44;5019196;28;20299;-72
2021/12/23 03:49:40;;;;;;;10.65;5.72;;;;;;;-5.57;78.41;95525.81;5019509;28;20211;-72
2021/12/23 03:52:07;;;;;;;13.32;6.38;;;;;;;-5.45;78.61;95522.34;5031517;28;20531;-72
2021/12/23 03:54:34;;;;;;;18.00;7.88;;;;;;;-5.55;76.69;95529.88;5032360;28;20204;-72
2021/12/23 03:57:01;;;;;;;9.18;5.18;;;;;;;-5.75;78.30;95523.84;5006443;28;20204;-71
2021/12/23 03:59:28;;;;;;;10.55;4.68;;;;;;;-6.00;77.95;95526.28;5032407;28;20227;-72
2021/12/23 04:01:56;;;;;;;14.43;5.57;;;;;;;-5.94;77.32;95514.94;5025040;28;20291;-72
2021/12/23 04:04:23;;;;;;;15.98;5.13;;;;;;;-5.84;76.95;95520.56;5025308;28;20204;-72
2021/12/23 04:06:51;;;;;;;10.95;5.18;;;;;;;-5.97;77.20;95528.53;5011887;28;20208;-72
2021/12/23 04:09:18;;;;;;;15.75;5.55;;;;;;;-5.77;77.41;95529.31;5012895;28;20228;-71
2021/12/23 04:11:45;;;;;;;15.10;4.78;;;;;;;-5.65;76.03;95531.31;5024679;28;20213;-71
2021/12/23 04:14:12;;;;;;;11.80;5.35;;;;;;;-5.83;76.62;95532.75;5027081;28;20196;-72
2021/12/23 04:16:39;;;;;;;17.38;6.70;;;;;;;-5.95;77.30;95539.69;5031844;28;20228;-72
2021/12/23 04:19:10;;;;;;;7.55;4.45;;;;;;;-6.04;78.51;95538.28;5018333;28;20267;-72
2021/12/23 04:21:39;;;;;;;14.50;5.07;;;;;;;-5.84;78.21;95539.03;5032071;28;20225;-71
2021/12/23 04:24:07;;;;;;;13.60;6.40;;;;;;;-5.78;77.29;95538.25;5031431;28;20587;-71
2021/12/23 04:26:35;;;;;;;15.48;7.35;;;;;;;-5.85;77.73;95540.03;5031497;28;20682;-72
2021/12/23 04:29:02;;;;;;;16.05;6.93;;;;;;;-5.80;76.71;95529.72;5028050;28;20680;-72
2021/12/23 04:31:29;;;;;;;9.23;5.13;;;;;;;-5.81;77.13;95541.28;5021817;28;20208;-72
2021/12/23 04:33:56;;;;;;;9.90;5.75;;;;;;;-5.75;77.71;95544.94;5031667;28;20212;-72
2021/12/23 04:36:27;;;;;;;14.40;6.25;;;;;;;-5.85;77.53;95532.13;5032674;28;20531;-72
2021/12/23 04:38:54;;;;;;;17.23;8.38;;;;;;;-5.68;77.74;95529.09;5031513;28;20197;-72
2021/12/23 04:41:21;;;;;;;14.30;5.10;;;;;;;-5.81;77.54;95530.72;5031628;28;20286;-71
2021/12/23 04:43:49;;;;;;;8.77;4.60;;;;;;;-5.74;76.95;95534.16;5031851;28;20726;-71
2021/12/23 04:46:16;;;;;;;19.75;5.68;;;;;;;-5.83;77.50;95538.03;5020180;28;20212;-72
2021/12/23 04:48:44;;;;;;;9.05;4.97;;;;;;;-5.96;78.38;95540.69;5030649;28;20211;-72
2021/12/23 04:51:12;;;;;;;13.27;5.03;;;;;;;-6.31;78.14;95529.53;5032181;28;20204;-71
2021/12/23 04:53:40;;;;;;;9.98;5.03;;;;;;;-6.26;78.58;95537.63;5031971;28;20212;-72
2021/12/23 04:56:07;;;;;;;15.70;7.30;;;;;;;-6.20;79.21;95536.03;5031609;28;20200;-72
2021/12/23 04:58:34;;;;;;;15.40;4.82;;;;;;;-6.11;78.52;95540.88;5031970;28;20227;-72
2021/12/23 05:01:03;;;;;;;9.15;4.70;;;;;;;-5.82;77.82;95550.19;5031102;28;20306;-72
2021/12/23 05:03:30;;;;;;;16.95;6.60;;;;;;;-6.02;77.41;95543.34;4999003;28;20209;-73
2021/12/23 05:05:56;;;;;;;10.63;5.22;;;;;;;-6.12;78.93;95552.44;5012033;28;20671;-72
2021/12/23 05:08:23;;;;;;;9.35;5.20;;;;;;;-6.06;79.11;95544.75;5031212;28;20695;-70
2021/12/23 05:10:52;;;;;;;22.40;10.57;;;;;;;-5.79;78.42;95557.72;5030362;28;20585;-71
2021/12/23 05:13:19;;;;;;;13.32;6.32;;;;;;;-5.72;76.64;95547.97;5031299;28;20209;-71
2021/12/23 05:15:46;;;;;;;12.90;6.35;;;;;;;-5.82;77.05;95539.66;5031077;28;20228;-72
2021/12/23 05:18:13;;;;;;;19.33;7.47;;;;;;;-5.96;77.67;95543.34;5030888;28;20215;-72
2021/12/23 05:20:40;;;;;;;14.40;6.35;;;;;;;-5.89;77.43;95544.16;5027756;28;20193;-71
2021/12/23 05:23:07;;;;;;;10.00;5.05;;;;;;;-5.98;78.24;95545.34;5030962;28;20670;-71
2021/12/23 05:25:34;;;;;;;15.95;5.88;;;;;;;-6.06;76.95;95537.66;5029902;28;20580;-71
2021/12/23 05:28:04;;;;;;;12.77;6.32;;;;;;;-6.05;77.50;95538.47;5029592;28;20674;-71
2021/12/23 05:30:31;;;;;;;9.20;5.07;;;;;;;-6.18;79.52;95547.19;5030072;28;20204;-72
2021/12/23 05:32:58;;;;;;;13.02;5.28;;;;;;;-5.88;78.02;95545.75;5028872;28;20715;-72
2021/12/23 05:35:26;;;;;;;8.82;4.82;;;;;;;-6.16;77.91;95539.88;5030113;28;20204;-71
2021/12/23 05:37:54;;;;;;;14.07;5.60;;;;;;;-6.29;78.90;95542.50;5030666;28;20212;-71
2021/12/23 05:40:23;;;;;;;11.27;5.28;;;;;;;-6.18;78.33;95549.81;5029611;28;20204;-71
2021/12/23 05:42:51;;;;;;;19.27;6.90;;;;;;;-6.15;79.09;95546.78;5030921;28;20239;-72
2021/12/23 05:45:20;;;;;;;11.77;5.97;;;;;;;-5.93;77.98;95548.22;5026741;28;20581;-72
2021/12/23 05:47:47;;;;;;;13.98;6.20;;;;;;;-5.94;77.05;95536.03;5022103;28;20201;-71
2021/12/23 05:50:16;;;;;;;16.60;5.60;;;;;;;-5.95;77.31;95544.97;5031104;28;20574;-72
2021/12/23 05:52:43;;;;;;;15.40;6.90;;;;;;;-5.89;77.71;95538.06;5030479;28;20211;-74
2021/12/23 05:55:12;;;;;;;13.80;7.20;;;;;;;1.20;95.91;95508.38;5016111;28;20269;-73
2021/12/23 05:57:39;;;;;;;16.60;8.15;;;;;;;1.73;97.98;95512.22;5017253;28;20239;-71
2021/12/23 06:00:10;;;;;;;19.58;8.32;;;;;;;1.91;98.47;95503.88;5030100;28;20254;-71
2021/12/23 06:02:38;;;;;;;18.88;9.02;;;;;;;1.67;98.54;95507.88;5030471;28;20220;-72
2021/12/23 06:05:06;;;;;;;17.40;7.90;;;;;;;-0.88;87.44;95507.50;5030935;28;20209;-74
2021/12/23 06:07:33;;;;;;;14.00;7.22;;;;;;;-2.56;82.35;95517.78;5016954;28;20211;-73
2021/12/23 06:10:00;;;;;;;19.27;7.38;;;;;;;-3.38;85.62;95529.69;5003969;28;20211;-72
2021/12/23 06:12:27;;;;;;;22.75;9.63;;;;;;;-4.13;81.14;95534.19;5022443;28;20664;-72
2021/12/23 06:14:54;;;;;;;12.77;6.75;;;;;;;-4.97;82.13;95531.78;5014720;28;20267;-73
2021/12/23 06:17:21;;;;;;;26.00;6.38;;;;;;;-4.96;86.79;95538.69;5010762;28;20656;-73
2021/12/23 06:19:49;;;;;;;13.25;6.20;;;;;;;-4.87;84.93;95542.69;5014391;28;20213;-75
2021/12/23 06:22:18;;;;;;;9.75;5.72;;;;;;;-4.73;86.55;95539.00;5028426;28;20293;-76
2021/12/23 06:24:47;;;;;;;10.90;5.93;;;;;;;-4.12;88.33;95547.22;5033169;28;20197;-72
2021/12/23 06:27:15;;;;;;;14.73;6.75;;;;;;;-3.95;83.07;95550.13;5019635;28;20296;-72
2021/12/23 06:29:41;;;;;;;13.95;7.45;;;;;;;-4.35;79.74;95544.28;5028290;28;20219;-75
2021/12/23 06:32:09;;;;;;;11.05;6.60;;;;;;;-4.96;77.45;95550.06;5014209;28;20213;-75
2021/12/23 06:34:36;;;;;;;13.18;5.45;;;;;;;-5.11;78.69;95546.84;5022164;28;20204;-75
2021/12/23 06:37:05;;;;;;;14.93;5.47;;;;;;;-4.96;80.77;95549.25;5031793;28;20211;-74
2021/12/23 06:39:32;;;;;;;13.63;5.63;;;;;;;-4.94;82.38;95552.50;5022221;28;20670;-74
2021/12/23 06:41:59;;;;;;;13.27;6.35;;;;;;;-5.14;80.33;95548.06;5033035;28;20243;-74
2021/12/23 06:44:26;;;;;;;8.68;4.57;;;;;;;-5.31;81.94;95546.88;5033690;28;20207;-72
2021/12/23 06:46:54;;;;;;;15.02;7.85;;;;;;;-5.45;80.15;95553.22;5020057;28;20211;-72
2021/12/23 06:49:21;;;;;;;11.52;5.57;;;;;;;-5.19;82.65;95552.38;5034036;28;20231;-73
2021/12/23 06:51:48;;;;;;;15.48;6.22;;;;;;;-5.07;80.49;95540.97;5033589;28;20207;-76
2021/12/23 06:54:17;;;;;;;12.35;5.85;;;;;;;-5.22;79.26;95540.38;5033730;28;20200;-73
2021/12/23 06:56:46;;;;;;;15.45;6.25;;;;;;;-5.32;78.02;95550.53;5033312;28;20204;-74
2021/12/23 06:59:14;;;;;;;12.27;6.22;;;;;;;-5.12;79.63;95540.75;5032819;28;20220;-75
2021/12/23 07:01:42;;;;;;;16.55;7.72;;;;;;;-5.16;78.33;95536.91;5027888;28;20331;-76
2021/12/23 07:04:14;;;;;;;20.92;6.70;;;;;;;-5.10;78.33;95536.09;5033490;28;20212;-78
2021/12/23 07:06:47;;;;;;;14.82;6.22;;;;;;;-5.11;78.03;95534.47;5033566;28;20203;-78
2021/12/23 07:09:16;;;;;;;13.80;5.85;;;;;;;-5.16;77.36;95534.25;5032950;28;20192;-74
2021/12/23 07:11:43;;;;;;;18.30;6.68;;;;;;;-4.97;76.69;95547.63;5033688;28;20263;-73
2021/12/23 07:14:10;;;;;;;8.75;5.22;;;;;;;-4.92;77.22;95548.59;5031977;28;20232;-74
2021/12/23 07:16:39;;;;;;;4.97;3.92;;;;;;;-4.97;75.22;95547.63;5021180;28;20208;-72
2021/12/23 07:19:06;;;;;;;10.50;4.60;;;;;;;-5.17;75.46;95556.41;5033475;28;20291;-73
2021/12/23 07:21:33;;;;;;;10.32;4.60;;;;;;;-5.31;75.19;95552.16;5033108;28;20242;-73
2021/12/23 07:24:00;;;;;;;13.65;5.60;;;;;;;-5.36;75.74;95559.91;5018937;28;20207;-72
2021/12/23 07:26:28;;;;;;;16.42;7.20;;;;;;;-5.39;75.87;95560.31;5033379;28;20205;-72
2021/12/23 07:28:55;;;;;;;18.63;6.25;;;;;;;-5.17;75.16;95559.03;5032808;28;20211;-72
2021/12/23 07:31:22;;;;;;;8.55;4.47;;;;;;;-5.02;74.83;95546.41;5033569;28;20538;-73
2021/12/23 07:33:49;;;;;;;14.95;6.10;;;;;;;-4.94;73.47;95563.88;5032841;28;20212;-72
2021/12/23 07:36:18;;;;;;;10.80;5.55;;;;;;;-4.86;72.88;95566.28;5033272;28;20560;-73
2021/12/23 07:38:46;;;;;;;13.18;5.43;;;;;;;-4.61;73.13;95568.22;5032339;28;20742;-74
2021/12/23 07:41:17;;;;;;;21.35;5.78;;;;;;;-4.39;72.92;95551.84;5022740;28;20237;-74
2021/12/23 07:44:03;;;;;;;8.30;5.13;;;;;;;-4.07;71.37;95565.88;5014861;28;20204;-74
2021/12/23 07:46:38;;;;;;;11.18;4.07;;;;;;;-3.90;70.48;95560.06;5015488;28;20292;-73
2021/12/23 07:49:11;;;;;;;12.57;5.82;;;;;;;-3.90;70.40;95560.88;5031958;28;20222;-73
2021/12/23 07:51:40;;;;;;;9.57;5.53;;;;;;;-3.77;69.91;95566.09;5032091;28;20200;-73
2021/12/23 07:54:08;;;;;;;12.75;5.38;;;;;;;-3.38;68.49;95561.47;5032053;28;20204;-71
2021/12/23 07:56:36;;;;;;;8.48;4.25;;;;;;;-3.70;67.90;95566.88;5032460;28;20358;-74
2021/12/23 07:59:04;;;;;;;14.85;5.75;;;;;;;-3.74;68.21;95563.00;5032579;28;20211;-73
2021/12/23 08:01:31;;;;;;;13.45;6.05;;;;;;;-4.21;69.17;95563.53;5031801;28;20219;-72
2021/12/23 08:03:58;;;;;;;11.15;5.60;;;;;;;-3.88;69.57;95564.13;5032399;28;20211;-72
2021/12/23 08:06:26;;;;;;;8.75;5.18;;;;;;;-3.51;69.07;95559.75;5019246;28;20270;-73
2021/12/23 08:08:53;;;;;;;14.88;6.32;;;;;;;-3.39;70.11;95554.56;5032188;28;20695;-74
2021/12/23 08:11:20;;;;;;;12.52;5.93;;;;;;;-3.29;67.86;95562.84;5031860;28;20247;-73
2021/12/23 08:13:47;;;;;;;9.30;4.80;;;;;;;-3.39;67.62;95562.50;5032178;28;20228;-76
2021/12/23 08:16:15;;;;;;;5.43;2.90;;;;;;;-3.15;65.75;95559.03;5032608;28;20204;-76
2021/12/23 08:18:42;;;;;;;14.65;7.10;;;;;;;-3.16;64.96;95562.72;5032086;28;20207;-73
2021/12/23 08:21:09;;;;;;;15.30;4.95;;;;;;;-3.63;65.69;95566.78;5021068;28;20212;-73
2021/12/23 08:23:36;;;;;;;10.98;5.93;;;;;;;-3.92;65.81;95562.13;5031312;28;20232;-73
2021/12/23 08:26:10;;;;;;;8.48;5.00;;;;;;;-3.80;65.85;95555.91;5031935;28;20227;-72
2021/12/23 08:28:37;;;;;;;18.33;7.03;;;;;;;-3.84;66.96;95556.59;5031955;28;20188;-74
2021/12/23 08:31:04;;;;;;;14.65;5.63;;;;;;;-4.04;67.53;95554.06;5031192;28;20422;-72
2021/12/23 08:33:33;;;;;;;15.52;7.10;;;;;;;-3.80;68.37;95558.56;5030683;28;20200;-75
2021/12/23 08:36:00;;;;;;;10.50;4.60;;;;;;;-3.61;69.39;95533.78;5004856;28;20220;-77
2021/12/23 08:38:27;;;;;;;11.95;7.05;;;;;;;-3.26;65.49;95542.00;5031207;28;20222;-75
2021/12/23 08:40:56;;;;;;;15.02;6.70;;;;;;;-2.89;65.44;95542.84;5023788;28;20311;-76
2021/12/23 08:43:23;;;;;;;12.10;6.43;;;;;;;-3.00;66.95;95540.91;5012371;28;20233;-75
2021/12/23 08:45:50;;;;;;;7.03;4.32;;;;;;;-2.98;64.16;95543.34;5024087;28;20261;-80
2021/12/23 08:48:17;;;;;;;10.07;5.03;;;;;;;-2.93;66.24;95536.38;5013247;28;20209;-75
2021/12/23 08:50:45;;;;;;;9.40;3.95;;;;;;;-3.20;64.63;95535.03;5021426;28;20204;-75
2021/12/23 08:53:12;;;;;;;8.57;4.35;;;;;;;-3.09;65.20;95534.28;5031655;28;20208;-76
2021/12/23 08:55:39;;;;;;;9.50;4.82;;;;;;;-3.05;65.40;95532.03;5013378;28;20634;-75
2021/12/23 08:58:06;;;;;;;15.05;5.95;;;;;;;-2.46;68.27;95523.34;5026599;28;20228;-76
2021/12/23 09:00:36;;;;;;;8.68;4.90;;;;;;;-2.34;61.94;95513.63;5031337;28;20204;-75
2021/12/23 09:03:05;;;;;;;20.05;6.38;;;;;;;-2.70;61.64;95508.38;5017102;28;20963;-75
2021/12/23 09:05:32;;;;;;;13.65;6.05;;;;;;;-2.54;62.04;95513.06;5022524;28;20204;-75
2021/12/23 09:08:00;;;;;;;13.57;5.65;;;;;;;-2.46;64.30;95510.09;5031023;28;20235;-76
2021/12/23 09:10:28;;;;;;;11.73;4.18;;;;;;;-2.21;62.96;95496.69;5031055;28;20204;-75
2021/12/23 09:12:55;;;;;;;11.68;5.18;;;;;;;-1.97;62.37;95493.06;5030759;28;20224;-75
2021/12/23 09:15:22;;;;;;;6.18;3.72;;;;;;;-2.15;61.07;95495.78;5030403;28;20663;-74
2021/12/23 09:17:49;;;;;;;4.60;2.53;;;;;;;-2.14;59.94;95497.41;5030591;28;20200;-76
2021/12/23 09:20:18;;;;;;;11.55;5.22;;;;;;;-2.16;61.11;95481.69;5030373;28;20669;-75
2021/12/23 09:22:46;;;;;;;7.18;4.43;;;;;;;-2.10;61.67;95487.13;5030241;28;20661;-75
2021/12/23 09:25:23;;;;;;;3.45;2.22;;;;;;;-1.96;59.70;95473.44;5030521;28;20208;-74
2021/12/23 09:28:08;;;;;;;8.75;4.28;;;;;;;-2.32;60.21;95474.38;4990771;28;20208;-76
2021/12/23 09:33:21;;;;;;;9.75;3.90;;;;;;;-2.45;62.86;95463.97;5029970;28;20212;-77
2021/12/23 09:35:48;;;;;;;11.65;4.60;;;;;;;-1.94;61.44;95465.25;5030944;28;20196;-74
2021/12/23 09:38:17;;;;;;;3.67;2.78;;;;;;;-2.13;59.59;95467.16;5030405;28;20719;-74
2021/12/23 09:40:45;;;;;;;6.45;3.20;;;;;;;-2.19;59.50;95462.78;5030177;28;20734;-75
2021/12/23 09:43:13;;;;;;;4.95;2.92;;;;;;;-2.19;58.26;95468.09;5017648;28;20232;-77
2021/12/23 09:45:43;;;;;;;8.48;4.10;;;;;;;-2.18;60.71;95459.06;5023110;28;20207;-75
2021/12/23 09:48:10;;;;;;;6.10;3.20;;;;;;;-1.72;60.35;95449.56;5023726;28;20208;-75
2021/12/23 09:50:39;;;;;;;6.88;3.30;;;;;;;-1.82;59.13;95442.19;5030656;28;20208;-76
2021/12/23 09:53:06;;;;;;;6.00;3.45;;;;;;;-1.72;57.85;95445.06;5029763;28;20204;-75
2021/12/23 09:55:37;;;;;;;16.77;4.90;;;;;;;-1.83;59.33;95429.94;5030528;28;20227;-76
2021/12/23 09:58:06;;;;;;;5.32;3.33;;;;;;;-2.05;58.97;95420.94;5030458;28;20235;-75
2021/12/23 10:00:36;;;;;;;8.85;5.43;;;;;;;-1.90;58.49;95416.75;5030030;28;20207;-75
2021/12/23 10:03:03;;;;;;;8.98;3.75;;;;;;;-1.71;57.61;95406.84;5030076;28;20274;-75
2021/12/23 10:05:32;;;;;;;11.02;4.70;;;;;;;-1.55;58.13;95410.66;5029751;28;20215;-75
2021/12/23 10:08:01;;;;;;;7.10;4.13;;;;;;;-1.40;57.21;95405.66;5030076;28;20208;-75
2021/12/23 10:10:33;;;;;;;13.45;4.93;;;;;;;-1.34;57.73;95407.38;5029747;28;20287;-75
2021/12/23 10:13:19;;;;;;;10.80;5.32;;;;;;;-1.15;57.43;95400.06;5029849;28;20224;-75
2021/12/23 10:27:55;;;;;;;13.00;5.85;;;;;;;-1.11;56.80;95369.31;5019482;28;20671;-75
2021/12/23 10:30:18;;;;;;;11.38;5.30;;;;;;;-0.97;56.84;95370.66;5012662;28;20278;-72
2021/12/23 10:38:37;;;;;;;17.15;6.53;;;;;;;-0.92;58.76;95372.59;5014070;28;20204;-74
2021/12/23 10:41:08;;;;;;;19.58;7.35;;;;;;;-0.84;57.13;95375.69;5013028;28;20315;-74
2021/12/23 10:43:37;;;;;;;18.13;8.27;;;;;;;-0.93;57.04;95366.44;5010848;28;20228;-73
2021/12/23 10:46:10;;;;;;;20.77;8.02;;;;;;;-0.70;58.07;95370.88;5020081;28;20228;-72
2021/12/23 10:48:51;;;;;;;14.25;7.78;;;;;;;-0.63;56.38;95366.22;5020971;28;20209;-76
2021/12/23 10:51:19;;;;;;;12.70;6.47;;;;;;;-0.50;57.35;95354.44;5016906;28;20199;-75
2021/12/23 10:54:10;;;;;;;20.75;9.02;;;;;;;-0.37;55.65;95348.81;5003486;28;20671;-73
2021/12/23 10:59:24;;;;;;;15.82;7.80;;;;;;;-0.59;57.16;95321.31;5030762;28;20200;-74
2021/12/23 11:02:19;;;;;;;18.85;8.05;;;;;;;-0.59;57.06;95326.63;5023427;28;20208;-74
2021/12/23 11:04:59;;;;;;;24.73;7.90;;;;;;;-0.25;56.76;95336.22;5012584;28;20205;-73
2021/12/23 11:07:40;;;;;;;6.65;4.60;;;;;;;-0.24;56.58;95329.06;5020275;28;20201;-74
2021/12/23 11:10:17;;;;;;;13.63;7.25;;;;;;;-0.45;57.10;95331.41;5009704;28;20255;-71
2021/12/23 11:35:51;;;;;;;20.20;8.40;;;;;;;0.10;57.25;95292.56;4983409;28;20554;-73
2021/12/23 11:38:30;;;;;;;19.10;8.07;;;;;;;0.35;56.19;95290.22;5012232;28;20256;-73
2021/12/23 11:41:01;;;;;;;12.13;7.32;;;;;;;0.32;54.89;95277.38;5012941;28;20237;-73
2021/12/23 11:46:13;;;;;;;13.40;5.97;;;;;;;-0.22;55.25;95277.19;5011644;28;20211;-74
2021/12/23 11:48:45;;;;;;;13.18;7.72;;;;;;;-0.16;56.64;95276.22;5009637;28;20560;-76
2021/12/23 11:51:19;;;;;;;15.40;7.40;;;;;;;-0.30;56.32;95266.16;5012384;28;20217;-74
2021/12/23 11:53:49;;;;;;;7.43;4.15;;;;;;;-0.11;56.58;95273.63;5012643;28;20186;-75
2021/12/23 11:56:18;;;;;;;24.33;8.23;;;;;;;0.05;55.73;95265.84;5019508;28;20217;-73
2021/12/23 11:58:47;;;;;;;12.23;4.50;;;;;;;0.14;55.80;95265.16;5012239;28;20208;-74
2021/12/23 12:01:24;;;;;;;13.80;7.45;;;;;;;0.24;55.54;95259.19;5026672;28;20203;-75
2021/12/23 12:03:58;;;;;;;10.55;6.10;;;;;;;-0.07;55.13;95253.44;5027293;28;20899;-74
2021/12/23 12:06:29;;;;;;;11.70;4.82;;;;;;;-0.32;55.60;95254.94;5025077;28;20548;-76
2021/12/23 12:09:14;;;;;;;10.15;4.35;;;;;;;-0.35;56.11;95258.91;5028367;28;20189;-76
2021/12/23 12:11:42;;;;;;;16.95;6.95;;;;;;;-0.11;56.45;95262.97;5012984;28;20224;-76
2021/12/23 12:14:34;;;;;;;16.02;7.15;;;;;;;0.02;55.34;95255.69;5019535;28;20640;-75
2021/12/23 12:17:34;;;;;;;8.50;5.15;;;;;;;0.32;54.89;95242.75;5010889;28;20426;-75
2021/12/23 12:20:07;;;;;;;17.90;8.25;;;;;;;0.34;56.13;95238.00;5009957;28;20846;-74
2021/12/23 12:22:55;;;;;;;10.35;4.40;;;;;;;0.24;53.93;95240.53;5013593;28;20272;-73
2021/12/23 12:25:57;;;;;;;17.63;7.03;;;;;;;0.37;55.05;95236.69;5018801;28;20196;-73
2021/12/23 12:28:33;;;;;;;9.68;5.43;;;;;;;0.61;53.84;95236.16;5011088;28;20213;-74